createdAt,value
2018-06-10T00:00:51.039Z,18.51
2018-06-10T00:03:20.997Z,18.50
2018-06-10T00:05:50.776Z,18.47
2018-06-10T00:08:20.433Z,18.47
2018-06-10T00:10:50.553Z,18.51
2018-06-10T00:13:20.419Z,18.65
2018-06-10T00:15:50.392Z,18.68
2018-06-10T00:18:20.357Z,18.68
2018-06-10T00:20:50.371Z,18.68
2018-06-10T00:23:20.266Z,18.67
2018-06-10T00:25:50.154Z,18.74
2018-06-10T00:28:25.126Z,18.77
2018-06-10T00:30:55.103Z,18.86
2018-06-10T00:33:25.348Z,18.93
2018-06-10T00:35:55.438Z,19.00
2018-06-10T00:38:24.956Z,18.96
2018-06-10T00:40:55.001Z,18.92
2018-06-10T00:43:24.572Z,18.96
2018-06-10T00:45:54.633Z,18.98
2018-06-10T00:48:24.604Z,18.97
2018-06-10T00:50:54.374Z,19.03
2018-06-10T00:53:24.062Z,18.95
2018-06-10T00:55:53.784Z,18.91
2018-06-10T00:58:23.508Z,18.91
2018-06-10T01:00:53.192Z,19.01
2018-06-10T01:03:22.837Z,19.13
2018-06-10T01:05:52.489Z,19.19
2018-06-10T01:08:22.398Z,19.16
2018-06-10T01:10:52.064Z,19.13
2018-06-10T01:13:21.706Z,19.21
2018-06-10T01:15:51.442Z,19.20
2018-06-10T01:18:20.736Z,19.25
2018-06-10T01:20:50.437Z,19.30
2018-06-10T01:23:20.100Z,19.31
2018-06-10T01:25:49.752Z,19.28
2018-06-10T01:28:19.425Z,19.25
2018-06-10T01:30:49.108Z,19.31
2018-06-10T01:33:18.729Z,19.34
2018-06-10T01:35:48.397Z,19.34
2018-06-10T01:38:18.523Z,19.23
2018-06-10T01:40:51.865Z,19.30
2018-06-10T01:43:21.601Z,19.38
2018-06-10T01:45:56.412Z,19.25
2018-06-10T01:48:25.745Z,19.27
2018-06-10T01:50:55.426Z,19.13
2018-06-10T01:53:24.811Z,18.92
2018-06-10T01:55:54.505Z,18.83
2018-06-10T01:58:24.398Z,18.75
2018-06-10T02:00:54.070Z,18.59
2018-06-10T02:03:23.408Z,18.54
2018-06-10T02:05:53.101Z,18.54
2018-06-10T02:08:24.556Z,18.47
2018-06-10T02:10:54.205Z,18.38
2018-06-10T02:13:24.100Z,18.33
2018-06-10T02:15:53.746Z,18.39
2018-06-10T02:18:23.410Z,18.35
2018-06-10T02:20:53.076Z,18.34
2018-06-10T02:23:25.030Z,18.22
2018-06-10T02:25:54.664Z,18.19
2018-06-10T02:28:24.333Z,18.16
2018-06-10T02:30:54.042Z,18.15
2018-06-10T02:33:23.752Z,18.18
2018-06-10T02:35:53.526Z,18.10
2018-06-10T02:38:23.419Z,18.14
2018-06-10T02:40:53.085Z,18.07
2018-06-10T02:43:22.766Z,18.05
2018-06-10T02:45:52.493Z,18.00
2018-06-10T02:48:22.191Z,18.00
2018-06-10T02:50:51.812Z,17.99
2018-06-10T02:53:21.704Z,18.05
2018-06-10T02:55:51.351Z,17.99
2018-06-10T02:58:20.703Z,18.00
2018-06-10T03:00:50.462Z,18.00
2018-06-10T03:03:20.153Z,17.91
2018-06-10T03:05:49.874Z,17.91
2018-06-10T03:08:19.651Z,17.80
2018-06-10T03:10:49.310Z,17.72
2018-06-10T03:13:18.961Z,17.69
2018-06-10T03:15:48.718Z,17.69
2018-06-10T03:18:18.349Z,17.75
2018-06-10T03:20:48.165Z,17.74
2018-06-10T03:23:17.883Z,17.71
2018-06-10T03:25:47.666Z,17.74
2018-06-10T03:28:17.461Z,17.82
2018-06-10T03:30:47.138Z,17.91
2018-06-10T03:33:16.449Z,17.98
2018-06-10T03:35:46.114Z,18.03
2018-06-10T03:38:15.910Z,18.07
2018-06-10T03:40:45.565Z,18.11
2018-06-10T03:43:15.233Z,18.14
2018-06-10T03:45:44.998Z,18.18
2018-06-10T03:48:14.785Z,18.15
2018-06-10T03:50:44.788Z,18.17
2018-06-10T03:53:14.445Z,18.27
2018-06-10T03:55:44.142Z,18.27
2018-06-10T03:58:13.750Z,18.29
2018-06-10T04:00:43.414Z,18.33
2018-06-10T04:03:13.049Z,18.36
2018-06-10T04:05:42.741Z,18.37
2018-06-10T04:08:12.421Z,18.42
2018-06-10T04:10:41.794Z,18.46
2018-06-10T04:13:11.674Z,18.49
2018-06-10T04:15:41.388Z,18.58
2018-06-10T04:18:11.100Z,18.70
2018-06-10T04:20:40.777Z,18.77
2018-06-10T04:23:10.522Z,18.77
2018-06-10T04:25:40.161Z,18.74
2018-06-10T04:28:10.210Z,18.75
2018-06-10T04:30:39.925Z,18.75
2018-06-10T04:33:09.841Z,18.77
2018-06-10T04:35:39.522Z,18.67
2018-06-10T04:38:09.270Z,18.60
2018-06-10T04:40:38.926Z,18.60
2018-06-10T04:43:08.610Z,18.56
2018-06-10T04:45:38.284Z,18.54
2018-06-10T04:48:07.930Z,18.54
2018-06-10T04:50:37.598Z,18.50
2018-06-10T04:53:07.476Z,18.51
2018-06-10T04:55:37.165Z,18.49
2018-06-10T04:58:06.840Z,18.50
2018-06-10T05:00:36.505Z,18.52
2018-06-10T05:03:05.860Z,18.53
2018-06-10T05:05:35.569Z,18.57
2018-06-10T05:08:05.285Z,18.61
2018-06-10T05:10:34.946Z,18.67
2018-06-10T05:13:04.658Z,18.65
2018-06-10T05:15:34.311Z,18.62
2018-06-10T05:18:04.026Z,18.60
2018-06-10T05:20:33.792Z,18.61
2018-06-10T05:23:03.540Z,18.59
2018-06-10T05:25:33.222Z,18.51
2018-06-10T05:28:02.593Z,18.53
2018-06-10T05:30:32.240Z,18.58
2018-06-10T05:33:01.957Z,18.63
2018-06-10T05:35:31.700Z,18.65
2018-06-10T05:38:01.469Z,18.66
2018-06-10T05:40:31.101Z,18.78
2018-06-10T05:43:00.457Z,18.90
2018-06-10T05:45:30.139Z,18.99
2018-06-10T05:47:59.847Z,19.21
2018-06-10T05:50:29.545Z,19.45
2018-06-10T05:52:59.243Z,19.50
2018-06-10T05:55:28.877Z,19.70
2018-06-10T05:57:58.596Z,19.76
2018-06-10T06:00:28.319Z,19.87
2018-06-10T06:02:57.759Z,20.05
2018-06-10T06:05:27.552Z,20.26
2018-06-10T06:07:57.245Z,20.53
2018-06-10T06:10:26.608Z,20.58
2018-06-10T06:12:56.255Z,20.64
2018-06-10T06:15:26.148Z,20.79
2018-06-10T06:17:55.766Z,20.85
2018-06-10T06:20:25.497Z,20.95
2018-06-10T06:22:54.817Z,20.99
2018-06-10T06:25:24.519Z,20.90
2018-06-10T06:27:53.863Z,20.91
2018-06-10T06:30:23.502Z,21.04
2018-06-10T06:32:53.336Z,20.92
2018-06-10T06:35:23.046Z,20.90
2018-06-10T06:37:52.799Z,20.81
2018-06-10T06:40:22.500Z,21.04
2018-06-10T06:42:51.857Z,21.07
2018-06-10T06:45:21.263Z,21.41
2018-06-10T06:47:50.978Z,21.57
2018-06-10T06:50:20.607Z,21.55
2018-06-10T06:52:50.736Z,21.62
2018-06-10T06:55:20.489Z,21.43
2018-06-10T06:57:50.356Z,21.50
2018-06-10T07:00:19.957Z,21.65
2018-06-10T07:02:49.604Z,21.82
2018-06-10T07:05:19.216Z,21.55
2018-06-10T07:07:48.949Z,21.79
2018-06-10T07:10:18.590Z,22.24
2018-06-10T07:12:48.260Z,22.49
2018-06-10T07:15:17.921Z,22.55
2018-06-10T07:17:47.554Z,22.38
2018-06-10T07:20:17.431Z,21.75
2018-06-10T07:22:47.189Z,21.88
2018-06-10T07:25:16.816Z,21.82
2018-06-10T07:27:46.492Z,21.62
2018-06-10T07:30:16.122Z,21.87
2018-06-10T07:32:45.809Z,21.51
2018-06-10T07:35:15.446Z,21.21
2018-06-10T07:37:45.085Z,21.64
2018-06-10T07:40:14.781Z,21.41
2018-06-10T07:42:44.462Z,21.17
2018-06-10T07:45:14.096Z,21.21
2018-06-10T07:47:43.965Z,21.09
2018-06-10T07:50:13.617Z,21.03
2018-06-10T07:52:43.388Z,20.92
2018-06-10T07:55:13.122Z,21.01
2018-06-10T08:00:08.724Z,21.00
2018-06-10T08:02:38.337Z,21.01
2018-06-10T08:05:08.158Z,20.85
2018-06-10T08:07:37.806Z,21.03
2018-06-10T08:10:07.764Z,21.04
2018-06-10T08:12:37.433Z,21.06
2018-06-10T08:15:07.288Z,20.88
2018-06-10T08:17:37.086Z,20.91
2018-06-10T08:20:06.795Z,21.08
2018-06-10T08:22:36.454Z,21.18
2018-06-10T08:25:05.923Z,21.64
2018-06-10T08:27:35.638Z,21.73
2018-06-10T08:30:05.995Z,21.79
2018-06-10T08:32:35.361Z,22.00
2018-06-10T08:35:05.062Z,22.21
2018-06-10T08:37:34.905Z,22.28
2018-06-10T08:40:04.668Z,22.01
2018-06-10T08:42:34.351Z,21.77
2018-06-10T08:45:04.094Z,21.49
2018-06-10T08:47:33.813Z,21.79
2018-06-10T08:50:03.498Z,22.16
2018-06-10T08:52:33.257Z,22.60
2018-06-10T08:55:03.186Z,23.12
2018-06-10T08:57:32.980Z,23.12
2018-06-10T09:00:02.737Z,22.80
2018-06-10T09:02:32.400Z,24.17
2018-06-10T09:05:02.137Z,24.72
2018-06-10T09:07:31.813Z,24.71
2018-06-10T09:10:01.474Z,24.30
2018-06-10T09:12:31.225Z,24.01
2018-06-10T09:15:01.009Z,24.25
2018-06-10T09:17:30.810Z,23.69
2018-06-10T09:20:00.614Z,23.57
2018-06-10T09:22:30.259Z,23.13
2018-06-10T09:24:59.931Z,23.24
2018-06-10T09:27:29.590Z,23.38
2018-06-10T09:29:59.314Z,23.40
2018-06-10T09:32:29.161Z,23.45
2018-06-10T09:34:58.870Z,23.40
2018-06-10T09:37:28.693Z,23.41
2018-06-10T09:39:58.432Z,23.44
2018-06-10T09:42:28.181Z,23.40
2018-06-10T09:44:57.812Z,23.58
2018-06-10T09:47:27.507Z,24.01
2018-06-10T09:49:57.281Z,24.15
2018-06-10T09:52:26.987Z,23.81
2018-06-10T09:54:56.675Z,23.96
2018-06-10T09:57:26.352Z,23.44
2018-06-10T09:59:56.217Z,23.59
2018-06-10T10:02:25.921Z,24.49
2018-06-10T10:04:55.348Z,25.04
2018-06-10T10:07:25.015Z,25.16
2018-06-10T10:09:54.729Z,25.68
2018-06-10T10:12:24.582Z,27.90
2018-06-10T10:14:54.330Z,29.05
2018-06-10T10:17:24.065Z,30.17
2018-06-10T10:19:53.779Z,28.88
2018-06-10T10:22:23.469Z,28.85
2018-06-10T10:24:53.249Z,30.02
2018-06-10T10:27:23.181Z,29.47
2018-06-10T10:29:52.858Z,30.33
2018-06-10T10:32:22.304Z,31.27
2018-06-10T10:34:51.982Z,30.72
2018-06-10T10:37:21.357Z,28.39
2018-06-10T10:39:51.046Z,27.94
2018-06-10T10:42:20.696Z,28.63
2018-06-10T10:44:50.359Z,27.56
2018-06-10T10:47:20.021Z,27.02
2018-06-10T10:49:49.764Z,26.24
2018-06-10T10:52:19.504Z,26.14
2018-06-10T10:54:49.179Z,27.18
2018-06-10T10:57:18.652Z,27.00
2018-06-10T10:59:48.341Z,27.61
2018-06-10T11:02:17.986Z,29.12
2018-06-10T11:04:47.654Z,29.00
2018-06-10T11:07:17.371Z,30.82
2018-06-10T11:09:47.050Z,29.91
2018-06-10T11:12:16.371Z,29.68
2018-06-10T11:14:46.112Z,29.24
2018-06-10T11:17:15.782Z,30.19
2018-06-10T11:19:45.499Z,30.30
2018-06-10T11:22:15.208Z,30.76
2018-06-10T11:24:44.596Z,29.81
2018-06-10T11:27:14.345Z,29.12
2018-06-10T11:29:43.933Z,30.00
2018-06-10T11:32:13.392Z,29.32
2018-06-10T11:34:43.093Z,28.71
2018-06-10T11:37:12.774Z,27.75
2018-06-10T11:39:42.459Z,27.59
2018-06-10T11:42:12.125Z,27.71
2018-06-10T11:44:41.430Z,27.47
2018-06-10T11:47:11.102Z,27.34
2018-06-10T11:49:40.756Z,26.92
2018-06-10T11:52:10.549Z,27.26
2018-06-10T11:54:40.144Z,28.11
2018-06-10T11:57:09.493Z,28.33
2018-06-10T11:59:39.356Z,29.43
2018-06-10T12:02:09.155Z,28.35
2018-06-10T12:04:38.830Z,29.20
2018-06-10T12:07:08.506Z,29.79
2018-06-10T12:09:37.788Z,30.27
2018-06-10T12:12:07.457Z,31.03
2018-06-10T12:14:37.268Z,31.36
2018-06-10T12:17:07.020Z,30.68
2018-06-10T12:19:36.802Z,31.56
2018-06-10T12:22:06.589Z,30.78
2018-06-10T12:24:35.924Z,29.85
2018-06-10T12:27:05.706Z,31.12
2018-06-10T12:29:35.405Z,31.38
2018-06-10T12:32:05.199Z,32.43
2018-06-10T12:34:34.964Z,32.62
2018-06-10T12:37:04.751Z,32.13
2018-06-10T12:39:34.490Z,31.17
2018-06-10T12:42:04.149Z,31.61
2018-06-10T12:44:33.808Z,31.08
2018-06-10T12:47:03.144Z,31.62
2018-06-10T12:49:32.823Z,30.86
2018-06-10T12:52:02.244Z,29.40
2018-06-10T12:54:31.949Z,30.68
2018-06-10T12:57:01.605Z,30.29
2018-06-10T12:59:31.298Z,31.15
2018-06-10T13:02:01.004Z,31.59
2018-06-10T13:04:30.736Z,31.08
2018-06-10T13:07:00.450Z,30.39
2018-06-10T13:09:30.125Z,30.76
2018-06-10T13:11:59.508Z,30.78
2018-06-10T13:14:29.237Z,29.31
2018-06-10T13:16:58.651Z,28.55
2018-06-10T13:19:28.059Z,28.74
2018-06-10T13:21:57.421Z,29.56
2018-06-10T13:24:27.127Z,29.75
2018-06-10T13:26:56.808Z,30.25
2018-06-10T13:29:26.556Z,31.28
2018-06-10T13:31:56.215Z,30.49
2018-06-10T13:34:25.620Z,29.88
2018-06-10T13:36:55.274Z,29.46
2018-06-10T13:39:24.969Z,30.15
2018-06-10T13:41:54.650Z,29.72
2018-06-10T13:44:23.998Z,29.72
2018-06-10T13:46:53.729Z,28.10
2018-06-10T13:49:23.377Z,28.35
2018-06-10T13:51:53.061Z,28.14
2018-06-10T13:54:22.843Z,28.45
2018-06-10T13:56:52.519Z,27.48
2018-06-10T13:59:22.223Z,28.79
2018-06-10T14:01:51.871Z,29.64
2018-06-10T14:04:21.567Z,29.72
2018-06-10T14:06:51.094Z,28.30
2018-06-10T14:09:20.791Z,28.38
2018-06-10T14:11:50.134Z,28.19
2018-06-10T14:14:19.800Z,28.24
2018-06-10T14:16:49.209Z,28.05
2018-06-10T14:19:19.141Z,28.48
2018-06-10T14:21:48.926Z,28.97
2018-06-10T14:24:18.700Z,28.91
2018-06-10T14:26:48.337Z,30.52
2018-06-10T14:29:18.122Z,31.69
2018-06-10T14:31:47.888Z,32.51
2018-06-10T14:34:17.597Z,32.42
2018-06-10T14:36:47.313Z,33.37
2018-06-10T14:39:16.958Z,33.23
2018-06-10T14:41:46.732Z,32.67
2018-06-10T14:44:16.485Z,33.44
2018-06-10T14:46:46.211Z,33.69
2018-06-10T14:49:15.899Z,32.02
2018-06-10T14:51:45.230Z,31.18
2018-06-10T14:54:14.992Z,32.39
2018-06-10T14:56:44.725Z,31.16
2018-06-10T14:59:14.476Z,31.43
2018-06-10T15:01:44.253Z,31.95
2018-06-10T15:04:14.031Z,31.94
2018-06-10T15:06:43.771Z,32.15
2018-06-10T15:09:13.458Z,32.58
2018-06-10T15:11:43.153Z,32.56
2018-06-10T15:14:12.825Z,31.39
2018-06-10T15:16:42.120Z,30.72
2018-06-10T15:19:11.883Z,31.73
2018-06-10T15:21:41.683Z,31.00
2018-06-10T15:24:11.421Z,30.38
2018-06-10T15:26:41.093Z,29.22
2018-06-10T15:29:10.552Z,30.17
2018-06-10T15:31:40.235Z,29.92
2018-06-10T15:34:10.246Z,29.59
2018-06-10T15:36:39.945Z,30.21
2018-06-10T15:39:09.388Z,31.01
2018-06-10T15:41:39.959Z,30.94
2018-06-10T15:44:09.606Z,30.69
2018-06-10T15:46:39.275Z,31.31
2018-06-10T15:49:08.969Z,31.06
2018-06-10T15:51:38.662Z,30.35
2018-06-10T15:54:08.409Z,30.09
2018-06-10T15:56:38.201Z,30.62
2018-06-10T15:59:07.884Z,30.50
2018-06-10T16:01:37.587Z,29.85
2018-06-10T16:04:07.293Z,29.87
2018-06-10T16:06:37.043Z,29.55
2018-06-10T16:09:08.902Z,29.01
2018-06-10T16:11:38.536Z,28.18
2018-06-10T16:14:08.330Z,27.87
2018-06-10T16:16:38.049Z,26.86
2018-06-10T16:19:07.736Z,27.00
2018-06-10T16:21:37.607Z,26.93
2018-06-10T16:24:07.611Z,27.28
2018-06-10T16:26:37.288Z,26.92
2018-06-10T16:29:06.613Z,26.84
2018-06-10T16:31:36.321Z,26.50
2018-06-10T16:34:06.069Z,27.15
2018-06-10T16:36:35.747Z,27.18
2018-06-10T16:39:09.294Z,27.18
2018-06-10T16:41:39.100Z,26.90
2018-06-10T16:44:08.798Z,26.68
2018-06-10T16:46:38.463Z,26.47
2018-06-10T16:49:08.207Z,26.17
2018-06-10T16:51:37.977Z,26.08
2018-06-10T16:54:07.685Z,26.06
2018-06-10T16:56:37.494Z,26.00
2018-06-10T16:59:07.240Z,26.05
2018-06-10T17:01:36.644Z,25.92
2018-06-10T17:04:06.037Z,26.00
2018-06-10T17:06:35.678Z,26.01
2018-06-10T17:09:09.612Z,25.77
2018-06-10T17:11:39.320Z,25.43
2018-06-10T17:14:09.264Z,25.19
2018-06-10T17:16:39.026Z,25.04
2018-06-10T17:19:08.713Z,24.86
2018-06-10T17:21:38.431Z,24.76
2018-06-10T17:24:08.171Z,24.52
2018-06-10T17:26:37.813Z,24.44
2018-06-10T17:29:07.625Z,24.53
2018-06-10T17:31:37.339Z,24.35
2018-06-10T17:34:07.242Z,24.34
2018-06-10T17:36:37.048Z,24.28
2018-06-10T17:39:08.741Z,24.18
2018-06-10T17:41:38.497Z,24.13
2018-06-10T17:44:08.280Z,24.08
2018-06-10T17:46:37.993Z,23.96
2018-06-10T17:49:07.850Z,23.79
2018-06-10T17:51:37.263Z,23.66
2018-06-10T17:54:07.043Z,23.65
2018-06-10T17:56:36.771Z,23.54
2018-06-10T17:59:06.543Z,23.69
2018-06-10T18:01:36.241Z,23.70
2018-06-10T18:04:06.066Z,23.62
2018-06-10T18:06:35.824Z,23.59
2018-06-10T18:09:08.134Z,23.76
2018-06-10T18:11:37.989Z,23.70
2018-06-10T18:14:07.751Z,23.69
2018-06-10T18:16:37.176Z,23.56
2018-06-10T18:19:07.203Z,23.63
2018-06-10T18:21:36.947Z,23.51
2018-06-10T18:24:06.897Z,23.45
2018-06-10T18:26:36.646Z,23.36
2018-06-10T18:29:06.473Z,23.31
2018-06-10T18:31:36.171Z,23.33
2018-06-10T18:34:06.133Z,23.30
2018-06-10T18:36:35.946Z,23.37
2018-06-10T18:39:08.604Z,23.26
2018-06-10T18:41:38.516Z,23.12
2018-06-10T18:44:08.391Z,23.08
2018-06-10T18:46:38.155Z,22.95
2018-06-10T18:49:07.998Z,22.97
2018-06-10T18:51:37.838Z,22.92
2018-06-10T18:54:07.847Z,22.82
2018-06-10T18:56:37.638Z,22.82
2018-06-10T18:59:07.472Z,22.81
2018-06-10T19:01:37.193Z,22.79
2018-06-10T19:04:06.910Z,22.66
2018-06-10T19:06:36.789Z,22.59
2018-06-10T19:09:09.706Z,22.49
2018-06-10T19:11:39.433Z,22.39
2018-06-10T19:14:09.175Z,22.33
2018-06-10T19:16:38.882Z,22.38
2018-06-10T19:19:08.213Z,22.34
2018-06-10T19:21:37.932Z,22.31
2018-06-10T19:24:07.591Z,22.24
2018-06-10T19:26:37.274Z,22.11
2018-06-10T19:29:07.227Z,22.01
2018-06-10T19:31:36.980Z,21.84
2018-06-10T19:34:06.659Z,21.68
2018-06-10T19:36:36.467Z,21.54
2018-06-10T19:39:08.750Z,21.49
2018-06-10T19:41:38.526Z,21.41
2018-06-10T19:44:08.234Z,21.36
2018-06-10T19:46:38.107Z,21.22
2018-06-10T19:49:07.558Z,21.11
2018-06-10T19:51:37.244Z,20.99
2018-06-10T19:54:06.959Z,20.86
2018-06-10T19:56:36.666Z,20.82
2018-06-10T19:59:06.419Z,20.82
2018-06-10T20:01:36.081Z,20.75
2018-06-10T20:04:05.825Z,20.67
2018-06-10T20:06:35.549Z,20.59
2018-06-10T20:09:07.585Z,20.58
2018-06-10T20:11:37.529Z,20.49
2018-06-10T20:14:07.247Z,20.46
2018-06-10T20:16:36.983Z,20.38
2018-06-10T20:19:06.709Z,20.26
2018-06-10T20:21:36.385Z,20.19
2018-06-10T20:24:06.140Z,20.14
2018-06-10T20:26:35.827Z,20.13
2018-06-10T20:29:05.540Z,20.10
2018-06-10T20:31:35.222Z,20.02
2018-06-10T20:34:05.075Z,20.03
2018-06-10T20:36:34.944Z,19.97
2018-06-10T20:39:06.865Z,19.97
2018-06-10T20:41:36.761Z,20.07
2018-06-10T20:44:06.521Z,20.00
2018-06-10T20:46:35.922Z,19.97
2018-06-10T20:49:05.354Z,19.99
2018-06-10T20:51:35.136Z,19.99
2018-06-10T20:54:04.934Z,19.98
2018-06-10T20:56:34.771Z,19.86
2018-06-10T20:59:04.586Z,19.91
2018-06-10T21:01:34.282Z,19.91
2018-06-10T21:04:04.161Z,19.95
2018-06-10T21:06:33.862Z,19.84
2018-06-10T21:09:04.184Z,19.81
2018-06-10T21:11:34.010Z,19.89
2018-06-10T21:14:03.793Z,19.81
2018-06-10T21:16:33.523Z,19.75
2018-06-10T21:19:02.894Z,19.77
2018-06-10T21:21:32.571Z,19.72
2018-06-10T21:24:02.206Z,19.82
2018-06-10T21:26:32.008Z,19.90
2018-06-10T21:29:01.710Z,19.82
2018-06-10T21:31:31.371Z,19.75
2018-06-10T21:34:01.088Z,19.70
2018-06-10T21:36:30.796Z,19.68
2018-06-10T21:39:00.528Z,19.70
2018-06-10T21:41:30.229Z,19.86
2018-06-10T21:43:59.878Z,19.82
2018-06-10T21:46:29.538Z,19.82
2018-06-10T21:48:59.251Z,19.74
2018-06-10T21:51:28.916Z,19.66
2018-06-10T21:53:58.554Z,19.64
2018-06-10T21:56:28.202Z,19.57
2018-06-10T21:58:57.870Z,19.49
2018-06-10T22:01:27.601Z,19.50
2018-06-10T22:03:57.262Z,19.61
2018-06-10T22:06:27.357Z,19.59
2018-06-10T22:08:57.016Z,19.46
2018-06-10T22:11:26.744Z,19.34
2018-06-10T22:13:56.442Z,19.31
2018-06-10T22:16:26.210Z,19.15
2018-06-10T22:18:55.842Z,19.02
2018-06-10T22:21:25.353Z,18.94
2018-06-10T22:23:54.680Z,19.03
2018-06-10T22:26:24.337Z,19.04
2018-06-10T22:28:54.004Z,18.97
2018-06-10T22:31:23.715Z,18.93
2018-06-10T22:33:54.152Z,18.95
2018-06-10T22:36:24.006Z,18.91
2018-06-10T22:38:53.653Z,18.83
2018-06-10T22:41:23.036Z,18.92
2018-06-10T22:43:52.796Z,18.89
2018-06-10T22:46:22.541Z,18.88
2018-06-10T22:48:52.205Z,18.83
2018-06-10T22:51:21.986Z,18.80
2018-06-10T22:54:17.329Z,18.94
2018-06-10T22:56:46.967Z,18.83
2018-06-10T22:59:16.600Z,18.90
2018-06-10T23:01:46.263Z,18.99
2018-06-10T23:04:16.135Z,19.06
2018-06-10T23:06:45.767Z,19.03
2018-06-10T23:09:15.478Z,19.25
2018-06-10T23:11:45.179Z,19.10
2018-06-10T23:14:14.805Z,18.95
2018-06-10T23:16:44.528Z,18.99
2018-06-10T23:19:13.802Z,19.02
2018-06-10T23:21:43.454Z,19.16
2018-06-10T23:24:13.079Z,19.23
2018-06-10T23:26:42.813Z,19.30
2018-06-10T23:29:12.101Z,19.30
2018-06-10T23:31:41.727Z,19.28
2018-06-10T23:34:11.343Z,19.21
2018-06-10T23:36:41.006Z,19.16
2018-06-10T23:39:10.320Z,19.09
2018-06-10T23:41:39.965Z,18.99
2018-06-10T23:44:09.669Z,18.94
2018-06-10T23:46:39.447Z,18.87
2018-06-10T23:49:08.781Z,18.78
2018-06-10T23:51:38.449Z,18.69
2018-06-10T23:54:08.147Z,18.59
2018-06-10T23:56:37.811Z,18.51
2018-06-10T23:59:07.565Z,18.50
